Time;durP1;ratioP1;P1;durP2;ratioP2;P2;SDS_P1;SDS_P2;PMS_P1;PMS_P2;Temp;Humidity;BMP_temperature;BMP_pressure;BME280_temperature;BME280_humidity;BME280_pressure;Samples;Min_cycle;Max_cycle;Signal;HPM_P1;HPM_P2
2022/03/07 00:00:21;;;;;;;5.47;3.38;;;;;;;;;;5027962;28;20238;-20
2022/03/07 00:02:48;;;;;;;6.95;3.35;;;;;;;;;;5023921;28;20234;-20
2022/03/07 00:05:15;;;;;;;6.68;3.58;;;;;;;;;;5027703;28;20325;-20
2022/03/07 00:07:42;;;;;;;5.78;3.50;;;;;;;;;;5024534;28;21032;-21
2022/03/07 00:10:09;;;;;;;6.30;3.17;;;;;;;;;;5027952;28;20238;-20
2022/03/07 00:12:36;;;;;;;5.18;3.80;;;;;;;;;;5025072;28;20235;-20
2022/03/07 00:15:03;;;;;;;5.40;3.83;;;;;;;;;;5025758;28;20247;-21
2022/03/07 00:17:30;;;;;;;9.77;3.78;;;;;;;;;;5026014;28;20761;-21
2022/03/07 00:19:57;;;;;;;8.40;3.53;;;;;;;;;;5025199;28;20260;-20
2022/03/07 00:22:24;;;;;;;9.05;3.70;;;;;;;;;;5028918;28;20301;-21
2022/03/07 00:24:51;;;;;;;4.43;3.55;;;;;;;;;;5030009;28;20245;-21
2022/03/07 00:27:18;;;;;;;6.03;3.60;;;;;;;;;;5031777;28;20230;-21
2022/03/07 00:29:45;;;;;;;4.35;3.42;;;;;;;;;;5027732;28;20780;-20
2022/03/07 00:32:12;;;;;;;7.70;3.78;;;;;;;;;;5029404;28;20404;-21
2022/03/07 00:34:39;;;;;;;5.38;3.50;;;;;;;;;;5031028;28;20432;-20
2022/03/07 00:37:06;;;;;;;4.47;3.22;;;;;;;;;;5033878;28;20245;-20
2022/03/07 00:39:33;;;;;;;9.45;3.60;;;;;;;;;;5038571;28;20767;-21
2022/03/07 00:42:00;;;;;;;36.67;4.75;;;;;;;;;;5016574;28;20483;-21
2022/03/07 00:44:27;;;;;;;24.33;3.88;;;;;;;;;;5033257;28;20231;-21
2022/03/07 00:46:54;;;;;;;22.63;4.28;;;;;;;;;;5035051;28;20222;-21
2022/03/07 00:49:21;;;;;;;7.82;3.30;;;;;;;;;;5033640;28;20250;-21
2022/03/07 00:51:48;;;;;;;15.75;3.95;;;;;;;;;;5033318;28;20239;-21
2022/03/07 00:54:16;;;;;;;11.40;3.20;;;;;;;;;;5033068;28;20254;-20
2022/03/07 00:56:43;;;;;;;9.68;3.17;;;;;;;;;;5037096;28;20234;-21
2022/03/07 00:59:12;;;;;;;9.70;3.50;;;;;;;;;;5053944;28;20226;-21
2022/03/07 01:01:39;;;;;;;16.23;3.85;;;;;;;;;;5039690;28;20237;-21
2022/03/07 01:04:06;;;;;;;6.30;3.47;;;;;;;;;;5033922;28;20226;-21
2022/03/07 01:06:33;;;;;;;9.68;3.55;;;;;;;;;;5033849;28;20238;-20
2022/03/07 01:09:00;;;;;;;12.07;3.25;;;;;;;;;;5031651;28;20226;-21
2022/03/07 01:11:27;;;;;;;7.60;3.20;;;;;;;;;;5031250;28;20373;-21
2022/03/07 01:13:54;;;;;;;11.07;3.67;;;;;;;;;;5032379;28;20313;-20
2022/03/07 01:16:21;;;;;;;6.97;2.88;;;;;;;;;;5033019;28;20899;-21
2022/03/07 01:18:48;;;;;;;6.63;3.28;;;;;;;;;;5042869;28;20237;-21
2022/03/07 01:21:18;;;;;;;4.35;2.80;;;;;;;;;;5020000;28;20975;-21
2022/03/07 01:23:45;;;;;;;12.07;3.15;;;;;;;;;;5013591;28;20243;-21
2022/03/07 01:26:12;;;;;;;7.00;3.00;;;;;;;;;;5013570;28;20999;-20
2022/03/07 01:28:39;;;;;;;7.57;3.25;;;;;;;;;;5013805;28;20223;-20
2022/03/07 01:31:06;;;;;;;10.30;3.15;;;;;;;;;;5028863;28;20238;-20
2022/03/07 01:33:33;;;;;;;6.13;2.97;;;;;;;;;;5053354;28;20234;-20
2022/03/07 01:36:00;;;;;;;5.63;2.80;;;;;;;;;;5053404;28;20244;-20
2022/03/07 01:38:27;;;;;;;5.80;2.95;;;;;;;;;;5053156;28;20230;-21
2022/03/07 01:40:54;;;;;;;5.55;2.63;;;;;;;;;;5052076;28;20230;-20
2022/03/07 01:43:21;;;;;;;3.83;2.80;;;;;;;;;;5033514;28;20235;-21
2022/03/07 01:45:48;;;;;;;3.22;2.50;;;;;;;;;;5033202;28;20235;-20
2022/03/07 01:48:15;;;;;;;2.92;2.45;;;;;;;;;;5033544;28;20237;-21
2022/03/07 01:50:42;;;;;;;4.00;2.78;;;;;;;;;;5033052;28;20238;-20
2022/03/07 01:53:09;;;;;;;2.95;2.40;;;;;;;;;;5032405;28;20243;-20
2022/03/07 01:55:36;;;;;;;7.03;2.85;;;;;;;;;;5033290;28;20223;-20
2022/03/07 01:58:03;;;;;;;5.80;2.42;;;;;;;;;;5033140;28;20257;-20
2022/03/07 02:00:30;;;;;;;6.78;2.50;;;;;;;;;;5033238;28;20230;-20
2022/03/07 02:02:58;;;;;;;6.68;2.45;;;;;;;;;;5033083;28;20226;-21
2022/03/07 02:05:25;;;;;;;3.97;2.80;;;;;;;;;;5032206;28;20235;-21
2022/03/07 02:07:52;;;;;;;3.85;2.55;;;;;;;;;;5032469;28;20712;-21
2022/03/07 02:10:19;;;;;;;3.45;2.60;;;;;;;;;;5049442;28;20242;-20
2022/03/07 02:12:46;;;;;;;3.47;2.47;;;;;;;;;;5052583;28;20237;-20
2022/03/07 02:15:13;;;;;;;3.50;2.38;;;;;;;;;;5042817;28;20230;-20
2022/03/07 02:17:40;;;;;;;3.05;2.40;;;;;;;;;;5032721;28;20230;-20
2022/03/07 02:20:07;;;;;;;4.45;2.63;;;;;;;;;;5032810;28;20227;-20
2022/03/07 02:22:35;;;;;;;5.95;2.28;;;;;;;;;;5032087;28;20247;-20
2022/03/07 02:25:02;;;;;;;4.60;2.50;;;;;;;;;;5032793;28;20229;-20
2022/03/07 02:27:29;;;;;;;3.55;2.47;;;;;;;;;;5051043;28;20233;-21
2022/03/07 02:29:58;;;;;;;3.63;2.45;;;;;;;;;;5052512;28;20959;-20
2022/03/07 02:32:25;;;;;;;2.83;2.22;;;;;;;;;;5032625;28;20242;-21
2022/03/07 02:34:52;;;;;;;3.30;2.40;;;;;;;;;;5032549;28;20223;-20
2022/03/07 02:37:19;;;;;;;3.70;2.53;;;;;;;;;;5033065;28;20227;-20
2022/03/07 02:39:46;;;;;;;4.85;2.60;;;;;;;;;;5032777;28;20238;-21
2022/03/07 02:42:33;;;;;;;3.40;2.55;;;;;;;;;;5032624;28;20237;-21
2022/03/07 02:45:00;;;;;;;3.50;2.20;;;;;;;;;;5031718;28;20225;-21
2022/03/07 02:47:27;;;;;;;3.67;2.17;;;;;;;;;;5031183;28;20235;-21
2022/03/07 02:49:54;;;;;;;5.40;2.28;;;;;;;;;;5032414;28;20300;-20
2022/03/07 02:52:21;;;;;;;2.22;2.03;;;;;;;;;;5032165;28;20245;-20
2022/03/07 02:54:47;;;;;;;6.07;2.28;;;;;;;;;;5032226;28;20710;-20
2022/03/07 02:57:15;;;;;;;4.60;2.00;;;;;;;;;;5031715;28;20982;-20
2022/03/07 02:59:42;;;;;;;2.92;2.35;;;;;;;;;;5031437;28;20708;-20
2022/03/07 03:02:09;;;;;;;3.42;2.40;;;;;;;;;;5031906;28;20235;-20
2022/03/07 03:04:36;;;;;;;3.05;2.00;;;;;;;;;;5032091;28;20764;-21
2022/03/07 03:07:03;;;;;;;4.45;2.40;;;;;;;;;;5042243;28;20705;-21
2022/03/07 03:09:30;;;;;;;3.67;2.15;;;;;;;;;;5047778;28;20230;-21
2022/03/07 03:11:57;;;;;;;4.30;2.28;;;;;;;;;;5031938;28;20542;-20
2022/03/07 03:14:24;;;;;;;4.82;2.38;;;;;;;;;;5031964;28;20230;-21
2022/03/07 03:16:51;;;;;;;4.05;2.30;;;;;;;;;;5031784;28;20238;-21
2022/03/07 03:19:20;;;;;;;3.65;2.28;;;;;;;;;;5030461;28;20318;-20
2022/03/07 03:21:47;;;;;;;3.13;2.08;;;;;;;;;;5057918;22;20254;-21
2022/03/07 03:24:14;;;;;;;2.75;2.00;;;;;;;;;;5050096;28;20278;-21
2022/03/07 03:26:41;;;;;;;2.67;2.30;;;;;;;;;;5052820;28;20226;-21
2022/03/07 03:29:08;;;;;;;2.83;2.22;;;;;;;;;;5060999;28;20226;-21
2022/03/07 03:31:35;;;;;;;3.95;2.40;;;;;;;;;;5056034;28;20238;-21
2022/03/07 03:34:02;;;;;;;3.38;2.28;;;;;;;;;;5060899;28;20214;-21
2022/03/07 03:36:29;;;;;;;2.72;1.80;;;;;;;;;;5059506;28;20236;-21
2022/03/07 03:38:57;;;;;;;2.75;1.98;;;;;;;;;;5060140;28;20230;-21
2022/03/07 03:41:24;;;;;;;3.10;2.00;;;;;;;;;;5060058;28;20245;-21
2022/03/07 03:43:51;;;;;;;2.70;1.95;;;;;;;;;;5073122;28;20213;-21
2022/03/07 03:46:18;;;;;;;2.63;1.80;;;;;;;;;;5068835;28;21038;-21
2022/03/07 03:48:45;;;;;;;4.50;2.17;;;;;;;;;;5060090;28;20224;-21
2022/03/07 03:51:12;;;;;;;3.15;2.25;;;;;;;;;;5059935;28;20249;-21
2022/03/07 03:53:39;;;;;;;3.25;1.70;;;;;;;;;;5058854;28;20237;-21
2022/03/07 03:56:06;;;;;;;3.15;1.98;;;;;;;;;;5059234;28;20230;-21
2022/03/07 03:58:33;;;;;;;2.42;1.67;;;;;;;;;;5059589;28;20236;-21
2022/03/07 04:01:00;;;;;;;3.55;2.35;;;;;;;;;;5058434;28;20241;-21
2022/03/07 04:03:28;;;;;;;2.75;1.92;;;;;;;;;;5060139;28;20294;-21
2022/03/07 04:05:55;;;;;;;4.03;1.98;;;;;;;;;;5056565;28;20236;-21
2022/03/07 04:08:22;;;;;;;3.28;2.20;;;;;;;;;;5040107;28;20257;-21
2022/03/07 04:10:49;;;;;;;3.10;1.95;;;;;;;;;;5039891;28;20350;-21
2022/03/07 04:13:16;;;;;;;2.28;1.95;;;;;;;;;;5040044;28;20249;-21
2022/03/07 04:15:43;;;;;;;2.38;2.00;;;;;;;;;;5044031;28;20997;-21
2022/03/07 04:18:10;;;;;;;2.97;1.83;;;;;;;;;;5060007;28;20304;-21
2022/03/07 04:20:37;;;;;;;2.65;1.77;;;;;;;;;;5059128;28;20222;-22
2022/03/07 04:23:04;;;;;;;5.78;2.20;;;;;;;;;;5060082;28;20225;-21
2022/03/07 04:25:33;;;;;;;2.20;1.80;;;;;;;;;;5059666;28;20229;-21
2022/03/07 04:28:00;;;;;;;3.25;2.38;;;;;;;;;;5043627;28;20230;-21
2022/03/07 04:30:27;;;;;;;2.55;2.05;;;;;;;;;;5039757;28;20238;-21
2022/03/07 04:32:54;;;;;;;2.33;1.95;;;;;;;;;;5039253;28;20241;-21
2022/03/07 04:35:22;;;;;;;2.63;2.10;;;;;;;;;;5039158;28;20227;-21
2022/03/07 04:37:52;;;;;;;3.03;1.98;;;;;;;;;;5038109;28;20233;-21
2022/03/07 04:40:19;;;;;;;3.45;2.17;;;;;;;;;;5039608;28;20221;-21
2022/03/07 04:42:46;;;;;;;2.60;1.75;;;;;;;;;;5039560;28;20233;-21
2022/03/07 04:45:13;;;;;;;2.75;1.80;;;;;;;;;;5039233;28;20231;-21
2022/03/07 04:47:40;;;;;;;2.20;1.90;;;;;;;;;;5040084;28;20227;-21
2022/03/07 04:50:07;;;;;;;2.25;1.67;;;;;;;;;;5039775;28;20237;-21
2022/03/07 04:52:34;;;;;;;2.22;1.83;;;;;;;;;;5039585;28;20231;-21
2022/03/07 04:55:01;;;;;;;4.18;1.80;;;;;;;;;;5039806;28;20227;-21
2022/03/07 04:57:28;;;;;;;2.42;1.90;;;;;;;;;;5037898;28;20219;-21
2022/03/07 04:59:55;;;;;;;3.42;1.90;;;;;;;;;;5038166;28;20234;-21
2022/03/07 05:02:22;;;;;;;2.92;1.80;;;;;;;;;;5038851;28;20211;-21
2022/03/07 05:04:49;;;;;;;1.75;1.60;;;;;;;;;;5038684;28;20227;-21
2022/03/07 05:07:16;;;;;;;2.95;2.05;;;;;;;;;;5038753;28;20219;-21
2022/03/07 05:09:44;;;;;;;2.85;2.00;;;;;;;;;;5042350;28;20233;-21
2022/03/07 05:12:11;;;;;;;2.38;1.70;;;;;;;;;;5041529;28;20257;-21
2022/03/07 05:14:38;;;;;;;2.85;1.80;;;;;;;;;;5041805;28;21107;-22
2022/03/07 05:17:05;;;;;;;2.10;1.80;;;;;;;;;;5040901;28;20215;-21
2022/03/07 05:19:32;;;;;;;2.83;1.75;;;;;;;;;;5042075;28;21066;-21
2022/03/07 05:21:59;;;;;;;2.63;1.90;;;;;;;;;;5041575;28;20963;-21
2022/03/07 05:24:26;;;;;;;2.55;1.58;;;;;;;;;;5041985;28;20227;-21
2022/03/07 05:26:53;;;;;;;2.22;1.80;;;;;;;;;;5042184;28;20226;-21
2022/03/07 05:29:20;;;;;;;3.08;2.00;;;;;;;;;;5042057;28;20227;-21
2022/03/07 05:31:47;;;;;;;2.47;1.77;;;;;;;;;;5042095;28;20231;-21
2022/03/07 05:34:14;;;;;;;2.55;1.83;;;;;;;;;;5058857;28;20237;-21
2022/03/07 05:36:41;;;;;;;1.92;1.50;;;;;;;;;;5050222;28;20230;-21
2022/03/07 05:39:10;;;;;;;3.85;1.77;;;;;;;;;;5041437;28;21118;-21
2022/03/07 05:41:37;;;;;;;1.58;1.42;;;;;;;;;;5042419;28;20233;-21
2022/03/07 05:44:04;;;;;;;3.70;1.50;;;;;;;;;;5042759;28;20226;-21
2022/03/07 05:46:31;;;;;;;2.58;1.70;;;;;;;;;;5042264;28;20242;-21
2022/03/07 05:48:58;;;;;;;1.92;1.50;;;;;;;;;;5041685;28;20218;-21
2022/03/07 05:51:25;;;;;;;1.95;1.52;;;;;;;;;;5042604;28;20234;-21
2022/03/07 05:53:52;;;;;;;2.00;1.58;;;;;;;;;;5042537;28;20245;-21
2022/03/07 05:56:19;;;;;;;2.65;1.80;;;;;;;;;;5042001;28;20234;-21
2022/03/07 05:58:46;;;;;;;2.58;1.67;;;;;;;;;;5041983;28;20237;-21
2022/03/07 06:01:13;;;;;;;1.95;1.50;;;;;;;;;;5041674;28;20230;-21
2022/03/07 06:03:41;;;;;;;2.55;1.60;;;;;;;;;;5042016;28;20222;-21
2022/03/07 06:06:08;;;;;;;1.90;1.38;;;;;;;;;;5041064;28;20237;-21
2022/03/07 06:08:35;;;;;;;2.00;1.80;;;;;;;;;;5042340;28;20234;-21
2022/03/07 06:11:02;;;;;;;1.80;1.60;;;;;;;;;;5041623;28;20745;-21
2022/03/07 06:13:29;;;;;;;1.83;1.65;;;;;;;;;;5040787;28;20223;-21
2022/03/07 06:15:56;;;;;;;4.30;1.75;;;;;;;;;;5041268;28;20231;-21
2022/03/07 06:18:24;;;;;;;2.65;1.83;;;;;;;;;;5041634;28;20235;-21
2022/03/07 06:20:51;;;;;;;2.33;1.77;;;;;;;;;;5039680;28;21101;-21
2022/03/07 06:23:19;;;;;;;2.58;1.45;;;;;;;;;;5041578;28;20227;-21
2022/03/07 06:25:46;;;;;;;2.20;1.50;;;;;;;;;;5041082;28;20222;-21
2022/03/07 06:28:14;;;;;;;2.80;1.80;;;;;;;;;;5040467;28;20227;-21
2022/03/07 06:30:41;;;;;;;2.60;1.40;;;;;;;;;;5040691;28;20215;-21
2022/03/07 06:33:08;;;;;;;1.77;1.65;;;;;;;;;;5040913;28;20238;-21
2022/03/07 06:35:35;;;;;;;2.17;1.83;;;;;;;;;;5040770;28;21124;-21
2022/03/07 06:38:02;;;;;;;2.03;1.50;;;;;;;;;;5040296;28;20257;-21
2022/03/07 06:40:29;;;;;;;2.53;1.92;;;;;;;;;;5040123;28;20607;-21
2022/03/07 06:42:57;;;;;;;2.25;1.65;;;;;;;;;;5040893;28;20230;-21
2022/03/07 06:45:24;;;;;;;2.33;1.50;;;;;;;;;;5040733;28;20226;-21
2022/03/07 06:47:51;;;;;;;2.17;1.70;;;;;;;;;;5041080;28;20235;-21
2022/03/07 06:50:18;;;;;;;4.63;1.60;;;;;;;;;;5039258;28;20227;-21
2022/03/07 06:52:44;;;;;;;2.05;1.73;;;;;;;;;;5040857;28;20223;-21
2022/03/07 06:55:11;;;;;;;1.60;1.40;;;;;;;;;;5040137;28;20226;-21
2022/03/07 06:57:38;;;;;;;2.53;1.75;;;;;;;;;;5037317;28;20235;-21
2022/03/07 07:00:05;;;;;;;2.10;1.70;;;;;;;;;;5039430;28;20231;-22
2022/03/07 07:02:32;;;;;;;2.25;1.65;;;;;;;;;;5038680;28;20241;-21
2022/03/07 07:05:02;;;;;;;2.72;1.90;;;;;;;;;;5033325;28;20235;-21
2022/03/07 07:07:29;;;;;;;2.50;1.75;;;;;;;;;;5022434;28;20224;-22
2022/03/07 07:09:56;;;;;;;2.33;1.80;;;;;;;;;;5027867;28;20225;-21
2022/03/07 07:12:23;;;;;;;2.22;1.73;;;;;;;;;;5027224;28;20245;-21
2022/03/07 07:14:50;;;;;;;2.05;1.80;;;;;;;;;;5024872;28;20234;-21
2022/03/07 07:17:17;;;;;;;2.53;1.70;;;;;;;;;;5026532;28;20225;-21
2022/03/07 07:19:44;;;;;;;2.10;1.67;;;;;;;;;;5032640;28;20210;-21
2022/03/07 07:22:11;;;;;;;2.67;1.85;;;;;;;;;;5025577;28;21057;-21
2022/03/07 07:24:38;;;;;;;3.45;1.83;;;;;;;;;;5025747;28;20233;-21
2022/03/07 07:27:05;;;;;;;2.60;1.83;;;;;;;;;;5026959;28;20219;-21
2022/03/07 07:29:32;;;;;;;1.58;1.48;;;;;;;;;;5028646;28;20317;-21
2022/03/07 07:31:59;;;;;;;1.48;1.38;;;;;;;;;;5038802;28;21006;-21
2022/03/07 07:34:26;;;;;;;1.90;1.70;;;;;;;;;;5041309;28;20238;-21
2022/03/07 07:36:53;;;;;;;2.30;1.73;;;;;;;;;;5039019;28;21000;-21
2022/03/07 07:39:20;;;;;;;3.28;2.13;;;;;;;;;;5039717;28;20200;-21
2022/03/07 07:41:47;;;;;;;2.17;1.83;;;;;;;;;;5040506;28;20223;-21
2022/03/07 07:44:15;;;;;;;2.30;1.73;;;;;;;;;;5039785;28;20226;-21
2022/03/07 07:46:43;;;;;;;2.42;1.75;;;;;;;;;;5039662;28;20279;-21
2022/03/07 07:49:10;;;;;;;2.17;1.60;;;;;;;;;;5039430;28;20228;-21
2022/03/07 07:51:38;;;;;;;2.45;1.80;;;;;;;;;;5038907;28;20226;-21
2022/03/07 07:54:05;;;;;;;6.53;1.80;;;;;;;;;;5040212;28;20227;-21
2022/03/07 07:56:32;;;;;;;3.33;1.75;;;;;;;;;;5039748;28;20234;-21
2022/03/07 07:58:59;;;;;;;7.53;1.77;;;;;;;;;;5041039;28;20231;-21
2022/03/07 08:01:28;;;;;;;4.57;2.15;;;;;;;;;;5039801;28;20235;-21
2022/03/07 08:03:56;;;;;;;3.22;1.90;;;;;;;;;;5040478;28;20203;-21
2022/03/07 08:06:23;;;;;;;2.80;1.75;;;;;;;;;;5040122;28;20235;-21
2022/03/07 08:08:50;;;;;;;2.50;2.08;;;;;;;;;;5039942;28;20226;-21
2022/03/07 08:11:17;;;;;;;3.90;1.95;;;;;;;;;;5040696;28;20279;-22
2022/03/07 08:13:44;;;;;;;3.03;2.00;;;;;;;;;;5040105;28;20243;-21
2022/03/07 08:16:11;;;;;;;4.82;2.17;;;;;;;;;;5039855;28;20321;-21
2022/03/07 08:18:38;;;;;;;6.95;2.30;;;;;;;;;;5040008;28;20242;-21
2022/03/07 08:21:05;;;;;;;8.48;3.25;;;;;;;;;;5039792;28;20247;-20
2022/03/07 08:23:32;;;;;;;10.80;2.75;;;;;;;;;;5040910;28;20229;-21
2022/03/07 08:26:04;;;;;;;16.73;2.83;;;;;;;;;;5040339;28;20669;-21
2022/03/07 08:28:31;;;;;;;10.18;2.55;;;;;;;;;;5040460;28;20229;-21
2022/03/07 08:30:58;;;;;;;9.18;2.60;;;;;;;;;;5036062;28;20227;-21
2022/03/07 08:33:25;;;;;;;7.03;2.92;;;;;;;;;;5035315;28;20241;-22
2022/03/07 08:35:55;;;;;;;8.80;2.80;;;;;;;;;;5034297;28;21234;-21
2022/03/07 08:38:22;;;;;;;9.55;2.17;;;;;;;;;;5034881;28;20229;-21
2022/03/07 08:40:49;;;;;;;9.77;2.37;;;;;;;;;;5032720;28;20436;-21
2022/03/07 08:43:16;;;;;;;8.10;2.15;;;;;;;;;;5036113;28;20231;-22
2022/03/07 08:45:43;;;;;;;5.47;2.28;;;;;;;;;;5038123;28;20231;-22
2022/03/07 08:48:22;;;;;;;8.50;2.17;;;;;;;;;;5035977;28;20350;-22
2022/03/07 08:50:49;;;;;;;4.60;2.03;;;;;;;;;;5036220;28;20235;-22
2022/03/07 08:53:16;;;;;;;5.83;2.20;;;;;;;;;;5038090;28;20424;-22
2022/03/07 08:55:43;;;;;;;9.00;2.60;;;;;;;;;;5038262;28;20595;-22
2022/03/07 08:58:19;;;;;;;4.07;2.15;;;;;;;;;;5036317;28;20814;-22
2022/03/07 09:00:46;;;;;;;6.18;2.30;;;;;;;;;;5035044;28;20232;-22
2022/03/07 09:03:13;;;;;;;4.43;2.22;;;;;;;;;;5031072;28;20230;-22
2022/03/07 09:05:40;;;;;;;3.50;2.30;;;;;;;;;;5037393;28;20461;-22
2022/03/07 09:08:07;;;;;;;4.68;2.95;;;;;;;;;;5037872;28;20227;-21
2022/03/07 09:10:34;;;;;;;5.05;2.70;;;;;;;;;;5036209;28;20233;-22
2022/03/07 09:13:01;;;;;;;5.35;2.20;;;;;;;;;;5036974;28;20266;-21
2022/03/07 09:15:28;;;;;;;6.73;2.13;;;;;;;;;;5038909;28;21258;-22
2022/03/07 09:17:55;;;;;;;9.00;2.67;;;;;;;;;;5041384;28;20207;-22
2022/03/07 09:20:22;;;;;;;9.27;2.28;;;;;;;;;;5041907;28;20629;-22
2022/03/07 09:22:49;;;;;;;12.00;2.42;;;;;;;;;;5042014;28;20231;-22
2022/03/07 09:25:16;;;;;;;8.50;2.15;;;;;;;;;;5040658;28;20223;-22
2022/03/07 09:27:44;;;;;;;4.35;2.03;;;;;;;;;;5033244;28;20284;-22
2022/03/07 09:30:11;;;;;;;7.28;2.15;;;;;;;;;;5030644;28;20231;-22
2022/03/07 09:32:38;;;;;;;5.10;2.00;;;;;;;;;;5029338;28;21180;-22
2022/03/07 09:35:05;;;;;;;3.30;1.67;;;;;;;;;;5026555;28;20791;-21
2022/03/07 09:37:32;;;;;;;5.60;1.90;;;;;;;;;;5027081;28;20446;-21
2022/03/07 09:39:59;;;;;;;3.30;1.60;;;;;;;;;;5022863;28;20231;-21
2022/03/07 09:42:26;;;;;;;7.25;2.00;;;;;;;;;;5020869;28;20236;-21
2022/03/07 09:44:54;;;;;;;8.43;2.30;;;;;;;;;;5017423;28;21270;-22
2022/03/07 09:47:22;;;;;;;9.10;2.30;;;;;;;;;;5054865;28;20261;-22
2022/03/07 09:49:49;;;;;;;9.57;2.50;;;;;;;;;;5057236;28;20426;-22
2022/03/07 09:52:16;;;;;;;13.18;2.75;;;;;;;;;;5036407;28;20424;-22
2022/03/07 09:54:43;;;;;;;13.32;2.47;;;;;;;;;;5037021;28;20425;-22
2022/03/07 09:57:10;;;;;;;12.95;2.30;;;;;;;;;;5038288;28;20392;-22
2022/03/07 09:59:37;;;;;;;9.80;2.05;;;;;;;;;;5035170;28;20223;-21
2022/03/07 10:02:05;;;;;;;9.20;2.58;;;;;;;;;;5037815;28;20262;-22
2022/03/07 10:04:32;;;;;;;8.77;2.22;;;;;;;;;;5039192;28;20227;-21
2022/03/07 10:06:59;;;;;;;15.32;2.38;;;;;;;;;;5037490;28;20246;-21
2022/03/07 10:09:26;;;;;;;16.45;2.30;;;;;;;;;;5033201;28;20234;-22
2022/03/07 10:11:53;;;;;;;14.60;2.70;;;;;;;;;;5033904;28;20241;-21
2022/03/07 10:14:20;;;;;;;8.55;1.75;;;;;;;;;;5034987;28;20243;-21
2022/03/07 10:16:47;;;;;;;10.55;1.98;;;;;;;;;;5036561;28;20219;-22
2022/03/07 10:19:14;;;;;;;5.55;1.73;;;;;;;;;;5033949;28;20230;-22
2022/03/07 10:21:41;;;;;;;3.85;1.58;;;;;;;;;;5034281;28;20756;-21
2022/03/07 10:24:08;;;;;;;4.80;1.40;;;;;;;;;;5035796;28;21072;-22
2022/03/07 10:26:38;;;;;;;4.28;1.67;;;;;;;;;;5034599;28;20246;-22
2022/03/07 10:29:05;;;;;;;5.38;1.60;;;;;;;;;;5033977;28;20231;-22
2022/03/07 10:31:52;;;;;;;6.63;1.52;;;;;;;;;;5039570;28;20267;-22
2022/03/07 10:34:19;;;;;;;6.72;1.40;;;;;;;;;;5032563;28;20249;-22
2022/03/07 10:36:46;;;;;;;6.10;1.40;;;;;;;;;;5033413;28;20822;-22
2022/03/07 10:39:13;;;;;;;3.17;1.52;;;;;;;;;;5033557;28;20230;-22
2022/03/07 10:41:40;;;;;;;6.47;1.48;;;;;;;;;;5033198;28;20257;-22
2022/03/07 10:44:07;;;;;;;5.10;1.52;;;;;;;;;;5034272;28;20420;-22
2022/03/07 10:46:34;;;;;;;9.45;1.65;;;;;;;;;;5034703;28;20246;-22
2022/03/07 10:49:01;;;;;;;8.05;1.50;;;;;;;;;;5036936;28;20280;-22
2022/03/07 10:51:28;;;;;;;5.32;1.65;;;;;;;;;;5036421;28;20242;-22
2022/03/07 10:53:55;;;;;;;3.28;1.30;;;;;;;;;;5054470;28;21196;-22
2022/03/07 10:56:24;;;;;;;3.20;1.38;;;;;;;;;;5054441;28;20229;-22
2022/03/07 10:58:52;;;;;;;2.88;1.27;;;;;;;;;;5051612;28;21152;-22
2022/03/07 11:01:19;;;;;;;3.65;1.33;;;;;;;;;;5033211;28;20253;-22
2022/03/07 11:03:46;;;;;;;3.70;1.30;;;;;;;;;;5034425;28;20231;-22
2022/03/07 11:06:13;;;;;;;2.45;1.10;;;;;;;;;;5034729;28;20321;-22
2022/03/07 11:08:43;;;;;;;3.92;1.20;;;;;;;;;;5034231;28;20737;-22
2022/03/07 11:11:10;;;;;;;4.35;1.30;;;;;;;;;;5037635;28;20773;-22
2022/03/07 11:13:37;;;;;;;4.32;1.42;;;;;;;;;;5036238;28;20239;-22
2022/03/07 11:16:04;;;;;;;3.10;1.55;;;;;;;;;;5030591;28;20231;-21
2022/03/07 11:18:31;;;;;;;4.88;1.88;;;;;;;;;;5036171;28;20227;-22
2022/03/07 11:20:58;;;;;;;2.15;1.15;;;;;;;;;;5035165;28;20242;-20
2022/03/07 11:23:25;;;;;;;5.30;0.95;;;;;;;;;;5035738;28;21035;-20
2022/03/07 11:25:52;;;;;;;3.65;1.27;;;;;;;;;;5031840;28;20239;-20
2022/03/07 11:28:20;;;;;;;3.30;1.10;;;;;;;;;;5030851;28;21019;-20
2022/03/07 11:30:47;;;;;;;5.30;1.40;;;;;;;;;;5032187;28;20237;-20
2022/03/07 11:33:14;;;;;;;3.13;1.25;;;;;;;;;;5029276;28;20377;-20
2022/03/07 11:35:41;;;;;;;6.65;1.55;;;;;;;;;;5031122;28;20227;-20
2022/03/07 11:38:08;;;;;;;3.00;1.00;;;;;;;;;;5025304;28;20226;-20
2022/03/07 11:40:35;;;;;;;1.75;1.40;;;;;;;;;;5036481;28;20259;-20
2022/03/07 11:43:02;;;;;;;3.58;1.10;;;;;;;;;;5034785;28;20231;-20
2022/03/07 11:45:29;;;;;;;2.17;1.10;;;;;;;;;;5032654;28;20239;-20
2022/03/07 11:47:56;;;;;;;2.55;1.10;;;;;;;;;;5032115;28;20235;-20
2022/03/07 11:50:24;;;;;;;10.48;1.98;;;;;;;;;;5034107;28;20231;-21
2022/03/07 11:52:51;;;;;;;7.47;1.83;;;;;;;;;;5031818;28;20400;-20
2022/03/07 11:55:21;;;;;;;13.45;1.30;;;;;;;;;;5028272;28;20704;-20
2022/03/07 11:57:48;;;;;;;6.88;1.48;;;;;;;;;;5030928;28;20226;-21
2022/03/07 12:00:16;;;;;;;7.03;1.42;;;;;;;;;;5024687;28;20234;-20
2022/03/07 12:02:43;;;;;;;5.82;1.40;;;;;;;;;;5020870;28;20211;-20
2022/03/07 12:05:10;;;;;;;5.35;1.60;;;;;;;;;;5021653;28;20330;-20
2022/03/07 12:07:37;;;;;;;2.17;1.25;;;;;;;;;;5033620;28;20240;-20
2022/03/07 12:10:04;;;;;;;5.30;1.40;;;;;;;;;;5029477;28;20235;-20
2022/03/07 12:12:31;;;;;;;5.45;1.33;;;;;;;;;;5033756;28;20223;-20
2022/03/07 12:14:58;;;;;;;7.07;1.25;;;;;;;;;;5033471;28;20238;-20
2022/03/07 12:17:27;;;;;;;8.73;1.80;;;;;;;;;;5032372;28;20709;-20
2022/03/07 12:19:54;;;;;;;11.80;1.90;;;;;;;;;;5037349;28;20427;-20
2022/03/07 12:22:21;;;;;;;12.13;1.77;;;;;;;;;;5037554;28;20252;-20
2022/03/07 12:24:48;;;;;;;4.03;1.52;;;;;;;;;;5038657;28;20221;-20
2022/03/07 12:27:15;;;;;;;4.50;1.38;;;;;;;;;;5037368;28;20237;-20
2022/03/07 12:29:45;;;;;;;3.88;1.20;;;;;;;;;;5038340;28;21105;-20
2022/03/07 12:32:12;;;;;;;4.47;1.33;;;;;;;;;;5038722;28;20233;-20
2022/03/07 12:34:43;;;;;;;4.50;1.20;;;;;;;;;;5039438;28;20239;-20
2022/03/07 12:37:10;;;;;;;2.75;1.30;;;;;;;;;;5040293;28;20227;-20
2022/03/07 12:39:37;;;;;;;2.28;1.17;;;;;;;;;;5040651;28;20218;-20
2022/03/07 12:42:04;;;;;;;4.70;1.40;;;;;;;;;;5039916;28;20239;-20
2022/03/07 12:44:31;;;;;;;3.33;1.30;;;;;;;;;;5039186;28;20219;-20
2022/03/07 12:46:58;;;;;;;5.30;1.30;;;;;;;;;;5039488;28;20313;-20
2022/03/07 12:49:26;;;;;;;1.15;1.00;;;;;;;;;;5039509;28;20678;-20
2022/03/07 12:51:53;;;;;;;1.52;0.90;;;;;;;;;;5039383;28;20261;-20
2022/03/07 12:54:19;;;;;;;2.95;1.30;;;;;;;;;;5039126;28;20941;-20
2022/03/07 12:56:47;;;;;;;3.22;1.10;;;;;;;;;;5039319;28;21050;-20
2022/03/07 12:59:14;;;;;;;2.88;1.10;;;;;;;;;;5039411;28;21006;-21
2022/03/07 13:01:41;;;;;;;2.60;1.00;;;;;;;;;;5038594;28;20246;-20
2022/03/07 13:04:08;;;;;;;2.08;1.30;;;;;;;;;;5038775;28;20235;-20
2022/03/07 13:06:35;;;;;;;1.83;1.00;;;;;;;;;;5039402;28;20222;-20
2022/03/07 13:09:02;;;;;;;2.47;0.98;;;;;;;;;;5039203;28;20227;-20
2022/03/07 13:11:29;;;;;;;4.10;1.15;;;;;;;;;;5038966;28;20222;-20
2022/03/07 13:13:56;;;;;;;2.30;1.20;;;;;;;;;;5039056;28;20231;-20
2022/03/07 13:16:23;;;;;;;2.47;1.00;;;;;;;;;;5039195;28;20238;-20
2022/03/07 13:18:56;;;;;;;1.98;1.05;;;;;;;;;;5038946;28;20234;-20
2022/03/07 13:21:23;;;;;;;3.47;1.23;;;;;;;;;;5038425;28;20227;-20
2022/03/07 13:23:50;;;;;;;3.47;0.90;;;;;;;;;;5039037;28;20231;-20
2022/03/07 13:26:21;;;;;;;1.92;1.05;;;;;;;;;;5038519;28;20974;-20
2022/03/07 13:28:48;;;;;;;2.15;1.10;;;;;;;;;;5039102;28;20242;-20
2022/03/07 13:31:15;;;;;;;3.38;1.00;;;;;;;;;;5038689;28;20239;-20
2022/03/07 13:33:42;;;;;;;2.22;1.10;;;;;;;;;;5020481;28;20228;-20
2022/03/07 13:36:09;;;;;;;2.05;1.02;;;;;;;;;;5038086;28;20218;-20
2022/03/07 13:38:36;;;;;;;2.00;1.13;;;;;;;;;;5058785;28;20225;-20
2022/03/07 13:41:03;;;;;;;2.08;0.98;;;;;;;;;;5058400;28;20709;-20
2022/03/07 13:43:30;;;;;;;1.65;0.93;;;;;;;;;;5058441;28;20205;-20
2022/03/07 13:45:57;;;;;;;2.45;1.00;;;;;;;;;;5051361;28;20238;-20
2022/03/07 13:48:25;;;;;;;2.95;0.90;;;;;;;;;;5047997;28;20709;-20
2022/03/07 13:50:52;;;;;;;1.85;0.90;;;;;;;;;;5049351;28;20239;-20
2022/03/07 13:53:23;;;;;;;1.65;1.15;;;;;;;;;;5037753;28;20227;-20
2022/03/07 13:55:54;;;;;;;2.13;0.90;;;;;;;;;;5038668;28;20218;-20
2022/03/07 13:58:23;;;;;;;2.80;0.90;;;;;;;;;;5039843;28;21065;-20
2022/03/07 14:00:51;;;;;;;1.63;0.85;;;;;;;;;;5051842;28;20289;-20
2022/03/07 14:03:18;;;;;;;1.38;1.00;;;;;;;;;;5037901;28;20227;-20
2022/03/07 14:05:55;;;;;;;2.08;1.05;;;;;;;;;;5038633;28;21024;-20
2022/03/07 14:08:23;;;;;;;1.00;0.90;;;;;;;;;;5038692;28;21236;-20
2022/03/07 14:10:56;;;;;;;1.90;0.90;;;;;;;;;;5038738;28;21232;-20
2022/03/07 14:13:23;;;;;;;1.90;0.88;;;;;;;;;;5038787;28;20310;-20
2022/03/07 14:15:50;;;;;;;4.60;2.47;;;;;;;;;;5038013;28;20231;-20
2022/03/07 14:18:17;;;;;;;6.10;2.30;;;;;;;;;;5038801;28;20452;-20
2022/03/07 14:20:44;;;;;;;3.67;2.10;;;;;;;;;;5038369;28;20448;-20
2022/03/07 14:23:13;;;;;;;4.35;1.90;;;;;;;;;;5024244;28;20381;-20
2022/03/07 14:25:40;;;;;;;2.08;1.58;;;;;;;;;;5034326;28;20238;-20
2022/03/07 14:28:07;;;;;;;3.90;2.05;;;;;;;;;;5037585;28;20232;-20
2022/03/07 14:30:48;;;;;;;3.67;1.88;;;;;;;;;;5041214;28;20274;-21
2022/03/07 14:33:15;;;;;;;3.25;1.73;;;;;;;;;;5037239;28;20242;-21
2022/03/07 14:35:42;;;;;;;2.95;1.85;;;;;;;;;;5032344;28;20231;-20
2022/03/07 14:38:09;;;;;;;2.80;1.75;;;;;;;;;;5038073;28;20235;-20
2022/03/07 14:40:37;;;;;;;7.47;2.20;;;;;;;;;;5039989;28;20237;-20
2022/03/07 14:43:04;;;;;;;3.45;1.98;;;;;;;;;;5037506;28;20996;-20